sensor_id;sensor_type;location;lat;lon;timestamp;P1;durP1;ratioP1;P2;durP2;ratioP2
74152;SDS011;62505;46.070;14.492;2022-11-06T00:00:51;4.57;;;3.85;;
74152;SDS011;62505;46.070;14.492;2022-11-06T00:03:18;6.40;;;4.20;;
74152;SDS011;62505;46.070;14.492;2022-11-06T00:05:45;6.43;;;4.05;;
74152;SDS011;62505;46.070;14.492;2022-11-06T00:08:31;6.97;;;4.20;;
74152;SDS011;62505;46.070;14.492;2022-11-06T00:10:59;6.57;;;4.32;;
74152;SDS011;62505;46.070;14.492;2022-11-06T00:13:26;6.45;;;4.35;;
74152;SDS011;62505;46.070;14.492;2022-11-06T00:15:54;7.30;;;4.22;;
74152;SDS011;62505;46.070;14.492;2022-11-06T00:18:24;6.00;;;4.20;;
74152;SDS011;62505;46.070;14.492;2022-11-06T00:20:51;5.55;;;3.65;;
74152;SDS011;62505;46.070;14.492;2022-11-06T00:23:18;4.80;;;3.72;;
74152;SDS011;62505;46.070;14.492;2022-11-06T00:25:46;5.32;;;3.92;;
74152;SDS011;62505;46.070;14.492;2022-11-06T00:28:17;5.35;;;3.78;;
74152;SDS011;62505;46.070;14.492;2022-11-06T00:30:44;4.95;;;3.90;;
74152;SDS011;62505;46.070;14.492;2022-11-06T00:33:11;5.13;;;3.47;;
74152;SDS011;62505;46.070;14.492;2022-11-06T00:35:38;5.75;;;3.95;;
74152;SDS011;62505;46.070;14.492;2022-11-06T00:38:05;6.00;;;4.30;;
74152;SDS011;62505;46.070;14.492;2022-11-06T00:40:33;6.60;;;4.28;;
74152;SDS011;62505;46.070;14.492;2022-11-06T00:43:01;7.28;;;4.07;;
74152;SDS011;62505;46.070;14.492;2022-11-06T00:45:28;5.20;;;4.18;;
74152;SDS011;62505;46.070;14.492;2022-11-06T00:47:55;5.80;;;4.07;;
74152;SDS011;62505;46.070;14.492;2022-11-06T00:50:22;5.60;;;4.00;;
74152;SDS011;62505;46.070;14.492;2022-11-06T00:52:50;5.72;;;4.03;;
74152;SDS011;62505;46.070;14.492;2022-11-06T00:55:18;7.32;;;3.80;;
74152;SDS011;62505;46.070;14.492;2022-11-06T00:57:45;5.05;;;4.00;;
74152;SDS011;62505;46.070;14.492;2022-11-06T01:00:14;6.18;;;3.92;;
74152;SDS011;62505;46.070;14.492;2022-11-06T01:02:44;6.25;;;4.00;;
74152;SDS011;62505;46.070;14.492;2022-11-06T01:05:11;5.70;;;4.10;;
74152;SDS011;62505;46.070;14.492;2022-11-06T01:07:38;6.18;;;4.25;;
74152;SDS011;62505;46.070;14.492;2022-11-06T01:10:06;5.60;;;3.47;;
74152;SDS011;62505;46.070;14.492;2022-11-06T01:12:34;7.82;;;4.35;;
74152;SDS011;62505;46.070;14.492;2022-11-06T01:15:00;5.57;;;3.85;;
74152;SDS011;62505;46.070;14.492;2022-11-06T01:17:29;6.65;;;3.78;;
74152;SDS011;62505;46.070;14.492;2022-11-06T01:19:56;6.80;;;3.83;;
74152;SDS011;62505;46.070;14.492;2022-11-06T01:22:22;6.13;;;4.53;;
74152;SDS011;62505;46.070;14.492;2022-11-06T01:24:49;5.63;;;4.03;;
74152;SDS011;62505;46.070;14.492;2022-11-06T01:27:16;6.57;;;4.20;;
74152;SDS011;62505;46.070;14.492;2022-11-06T01:29:43;5.28;;;3.90;;
74152;SDS011;62505;46.070;14.492;2022-11-06T01:32:10;6.78;;;4.13;;
74152;SDS011;62505;46.070;14.492;2022-11-06T01:34:39;5.30;;;4.07;;
74152;SDS011;62505;46.070;14.492;2022-11-06T01:37:06;4.55;;;3.60;;
74152;SDS011;62505;46.070;14.492;2022-11-06T01:39:33;6.30;;;4.18;;
74152;SDS011;62505;46.070;14.492;2022-11-06T01:42:00;5.45;;;3.90;;
74152;SDS011;62505;46.070;14.492;2022-11-06T01:47:32;4.95;;;3.80;;
74152;SDS011;62505;46.070;14.492;2022-11-06T01:50:02;6.38;;;4.07;;
74152;SDS011;62505;46.070;14.492;2022-11-06T01:52:32;5.32;;;3.83;;
74152;SDS011;62505;46.070;14.492;2022-11-06T01:55:02;5.45;;;4.13;;
74152;SDS011;62505;46.070;14.492;2022-11-06T01:57:34;5.90;;;3.45;;
74152;SDS011;62505;46.070;14.492;2022-11-06T02:00:01;5.72;;;3.80;;
74152;SDS011;62505;46.070;14.492;2022-11-06T02:02:30;8.40;;;4.20;;
74152;SDS011;62505;46.070;14.492;2022-11-06T02:04:57;5.45;;;4.13;;
74152;SDS011;62505;46.070;14.492;2022-11-06T02:07:25;5.63;;;3.92;;
74152;SDS011;62505;46.070;14.492;2022-11-06T02:09:52;6.55;;;4.25;;
74152;SDS011;62505;46.070;14.492;2022-11-06T02:12:21;5.75;;;4.13;;
74152;SDS011;62505;46.070;14.492;2022-11-06T02:14:58;5.65;;;4.10;;
74152;SDS011;62505;46.070;14.492;2022-11-06T02:17:33;6.28;;;4.20;;
74152;SDS011;62505;46.070;14.492;2022-11-06T02:20:09;5.68;;;3.97;;
74152;SDS011;62505;46.070;14.492;2022-11-06T02:23:01;5.90;;;4.40;;
74152;SDS011;62505;46.070;14.492;2022-11-06T02:25:42;5.25;;;3.70;;
74152;SDS011;62505;46.070;14.492;2022-11-06T02:28:16;5.25;;;4.07;;
74152;SDS011;62505;46.070;14.492;2022-11-06T02:30:48;4.50;;;3.45;;
74152;SDS011;62505;46.070;14.492;2022-11-06T02:33:17;5.95;;;3.92;;
74152;SDS011;62505;46.070;14.492;2022-11-06T02:35:51;5.07;;;3.88;;
74152;SDS011;62505;46.070;14.492;2022-11-06T02:38:22;5.15;;;3.65;;
74152;SDS011;62505;46.070;14.492;2022-11-06T02:40:53;6.35;;;3.90;;
74152;SDS011;62505;46.070;14.492;2022-11-06T02:43:25;5.75;;;3.90;;
74152;SDS011;62505;46.070;14.492;2022-11-06T02:45:57;5.90;;;3.97;;
74152;SDS011;62505;46.070;14.492;2022-11-06T02:48:29;4.90;;;3.80;;
74152;SDS011;62505;46.070;14.492;2022-11-06T02:51:02;5.00;;;3.92;;
74152;SDS011;62505;46.070;14.492;2022-11-06T02:53:33;5.25;;;4.00;;
74152;SDS011;62505;46.070;14.492;2022-11-06T02:56:04;5.65;;;3.95;;
74152;SDS011;62505;46.070;14.492;2022-11-06T02:58:37;5.20;;;3.63;;
74152;SDS011;62505;46.070;14.492;2022-11-06T03:01:10;5.40;;;4.05;;
74152;SDS011;62505;46.070;14.492;2022-11-06T03:03:42;4.35;;;3.70;;
74152;SDS011;62505;46.070;14.492;2022-11-06T03:06:17;5.25;;;3.65;;
74152;SDS011;62505;46.070;14.492;2022-11-06T03:08:53;6.47;;;3.92;;
74152;SDS011;62505;46.070;14.492;2022-11-06T03:11:24;4.72;;;3.63;;
74152;SDS011;62505;46.070;14.492;2022-11-06T03:13:55;5.30;;;3.60;;
74152;SDS011;62505;46.070;14.492;2022-11-06T03:16:31;4.72;;;3.92;;
74152;SDS011;62505;46.070;14.492;2022-11-06T03:19:05;6.20;;;4.38;;
74152;SDS011;62505;46.070;14.492;2022-11-06T03:21:37;5.80;;;4.10;;
74152;SDS011;62505;46.070;14.492;2022-11-06T03:24:16;5.03;;;3.72;;
74152;SDS011;62505;46.070;14.492;2022-11-06T03:26:50;5.20;;;3.47;;
74152;SDS011;62505;46.070;14.492;2022-11-06T03:29:22;4.88;;;4.05;;
74152;SDS011;62505;46.070;14.492;2022-11-06T03:31:56;3.83;;;3.33;;
74152;SDS011;62505;46.070;14.492;2022-11-06T03:34:31;4.50;;;3.40;;
74152;SDS011;62505;46.070;14.492;2022-11-06T03:37:06;4.53;;;3.38;;
74152;SDS011;62505;46.070;14.492;2022-11-06T03:39:40;6.72;;;4.18;;
74152;SDS011;62505;46.070;14.492;2022-11-06T03:42:12;5.15;;;3.70;;
74152;SDS011;62505;46.070;14.492;2022-11-06T03:44:44;5.43;;;3.88;;
74152;SDS011;62505;46.070;14.492;2022-11-06T03:47:15;5.25;;;3.85;;
74152;SDS011;62505;46.070;14.492;2022-11-06T03:49:47;5.03;;;3.58;;
74152;SDS011;62505;46.070;14.492;2022-11-06T03:52:18;5.38;;;3.70;;
74152;SDS011;62505;46.070;14.492;2022-11-06T03:54:51;5.30;;;3.85;;
74152;SDS011;62505;46.070;14.492;2022-11-06T03:57:23;5.22;;;3.70;;
74152;SDS011;62505;46.070;14.492;2022-11-06T03:59:56;5.82;;;4.07;;
74152;SDS011;62505;46.070;14.492;2022-11-06T04:02:27;6.15;;;4.10;;
74152;SDS011;62505;46.070;14.492;2022-11-06T04:04:57;5.45;;;3.92;;
74152;SDS011;62505;46.070;14.492;2022-11-06T04:07:29;5.90;;;4.05;;
74152;SDS011;62505;46.070;14.492;2022-11-06T04:10:01;5.45;;;3.72;;
74152;SDS011;62505;46.070;14.492;2022-11-06T04:12:47;5.15;;;3.63;;
74152;SDS011;62505;46.070;14.492;2022-11-06T04:15:45;5.47;;;3.53;;
74152;SDS011;62505;46.070;14.492;2022-11-06T04:18:16;4.88;;;3.60;;
74152;SDS011;62505;46.070;14.492;2022-11-06T04:20:46;5.40;;;3.90;;
74152;SDS011;62505;46.070;14.492;2022-11-06T04:23:39;4.78;;;3.72;;
74152;SDS011;62505;46.070;14.492;2022-11-06T04:26:32;4.82;;;3.63;;
74152;SDS011;62505;46.070;14.492;2022-11-06T04:29:06;5.25;;;3.67;;
74152;SDS011;62505;46.070;14.492;2022-11-06T04:31:45;5.63;;;3.47;;
74152;SDS011;62505;46.070;14.492;2022-11-06T04:34:26;6.07;;;4.10;;
74152;SDS011;62505;46.070;14.492;2022-11-06T04:37:05;5.15;;;3.90;;
74152;SDS011;62505;46.070;14.492;2022-11-06T04:39:36;5.13;;;3.72;;
74152;SDS011;62505;46.070;14.492;2022-11-06T04:42:10;6.88;;;3.75;;
74152;SDS011;62505;46.070;14.492;2022-11-06T04:44:43;6.78;;;4.15;;
74152;SDS011;62505;46.070;14.492;2022-11-06T04:47:17;4.88;;;3.60;;
74152;SDS011;62505;46.070;14.492;2022-11-06T04:49:47;4.93;;;3.58;;
74152;SDS011;62505;46.070;14.492;2022-11-06T04:52:17;4.75;;;3.60;;
74152;SDS011;62505;46.070;14.492;2022-11-06T04:54:48;6.38;;;3.88;;
74152;SDS011;62505;46.070;14.492;2022-11-06T04:57:15;4.50;;;3.55;;
74152;SDS011;62505;46.070;14.492;2022-11-06T04:59:42;5.32;;;3.60;;
74152;SDS011;62505;46.070;14.492;2022-11-06T05:02:09;5.32;;;3.35;;
74152;SDS011;62505;46.070;14.492;2022-11-06T05:04:38;5.25;;;3.70;;
74152;SDS011;62505;46.070;14.492;2022-11-06T05:07:04;4.47;;;3.47;;
74152;SDS011;62505;46.070;14.492;2022-11-06T05:09:31;5.07;;;3.70;;
74152;SDS011;62505;46.070;14.492;2022-11-06T05:11:58;5.28;;;4.15;;
74152;SDS011;62505;46.070;14.492;2022-11-06T05:14:25;5.13;;;3.67;;
74152;SDS011;62505;46.070;14.492;2022-11-06T05:16:52;3.70;;;3.10;;
74152;SDS011;62505;46.070;14.492;2022-11-06T05:19:19;4.78;;;3.40;;
74152;SDS011;62505;46.070;14.492;2022-11-06T05:21:47;3.78;;;3.15;;
74152;SDS011;62505;46.070;14.492;2022-11-06T05:24:31;4.53;;;3.60;;
74152;SDS011;62505;46.070;14.492;2022-11-06T05:26:58;6.55;;;3.85;;
74152;SDS011;62505;46.070;14.492;2022-11-06T05:29:25;4.82;;;3.63;;
74152;SDS011;62505;46.070;14.492;2022-11-06T05:31:52;5.03;;;3.72;;
74152;SDS011;62505;46.070;14.492;2022-11-06T05:34:19;5.22;;;3.50;;
74152;SDS011;62505;46.070;14.492;2022-11-06T05:36:48;5.32;;;3.88;;
74152;SDS011;62505;46.070;14.492;2022-11-06T05:39:15;4.47;;;3.63;;
74152;SDS011;62505;46.070;14.492;2022-11-06T05:41:41;5.13;;;3.40;;
74152;SDS011;62505;46.070;14.492;2022-11-06T05:44:09;4.70;;;3.63;;
74152;SDS011;62505;46.070;14.492;2022-11-06T05:46:36;4.97;;;3.60;;
74152;SDS011;62505;46.070;14.492;2022-11-06T05:49:03;5.80;;;4.05;;
74152;SDS011;62505;46.070;14.492;2022-11-06T05:51:30;5.50;;;3.50;;
74152;SDS011;62505;46.070;14.492;2022-11-06T05:53:58;5.20;;;3.70;;
74152;SDS011;62505;46.070;14.492;2022-11-06T05:56:25;5.68;;;3.85;;
74152;SDS011;62505;46.070;14.492;2022-11-06T05:58:52;5.20;;;3.45;;
74152;SDS011;62505;46.070;14.492;2022-11-06T06:01:19;5.53;;;3.90;;
74152;SDS011;62505;46.070;14.492;2022-11-06T06:03:46;5.03;;;3.30;;
74152;SDS011;62505;46.070;14.492;2022-11-06T06:06:13;4.95;;;3.53;;
74152;SDS011;62505;46.070;14.492;2022-11-06T06:08:40;5.82;;;3.70;;
74152;SDS011;62505;46.070;14.492;2022-11-06T06:11:08;5.85;;;3.63;;
74152;SDS011;62505;46.070;14.492;2022-11-06T06:13:35;4.75;;;3.42;;
74152;SDS011;62505;46.070;14.492;2022-11-06T06:16:02;3.72;;;3.13;;
74152;SDS011;62505;46.070;14.492;2022-11-06T06:18:30;4.47;;;3.47;;
74152;SDS011;62505;46.070;14.492;2022-11-06T06:20:57;7.30;;;3.63;;
74152;SDS011;62505;46.070;14.492;2022-11-06T06:23:24;5.40;;;3.53;;
74152;SDS011;62505;46.070;14.492;2022-11-06T06:25:51;5.35;;;3.72;;
74152;SDS011;62505;46.070;14.492;2022-11-06T06:28:19;4.47;;;2.92;;
74152;SDS011;62505;46.070;14.492;2022-11-06T06:30:46;4.57;;;3.45;;
74152;SDS011;62505;46.070;14.492;2022-11-06T06:33:13;4.53;;;3.60;;
74152;SDS011;62505;46.070;14.492;2022-11-06T06:35:40;4.18;;;3.17;;
74152;SDS011;62505;46.070;14.492;2022-11-06T06:38:07;5.40;;;3.60;;
74152;SDS011;62505;46.070;14.492;2022-11-06T06:40:33;4.07;;;3.30;;
74152;SDS011;62505;46.070;14.492;2022-11-06T06:43:00;5.40;;;3.40;;
74152;SDS011;62505;46.070;14.492;2022-11-06T06:45:29;5.22;;;3.95;;
74152;SDS011;62505;46.070;14.492;2022-11-06T06:48:00;4.03;;;3.13;;
74152;SDS011;62505;46.070;14.492;2022-11-06T06:50:27;4.95;;;4.00;;
74152;SDS011;62505;46.070;14.492;2022-11-06T06:52:54;5.13;;;3.75;;
74152;SDS011;62505;46.070;14.492;2022-11-06T06:55:21;4.63;;;3.53;;
74152;SDS011;62505;46.070;14.492;2022-11-06T06:57:54;5.82;;;3.30;;
74152;SDS011;62505;46.070;14.492;2022-11-06T07:00:21;5.07;;;3.85;;
74152;SDS011;62505;46.070;14.492;2022-11-06T07:02:49;6.32;;;3.35;;
74152;SDS011;62505;46.070;14.492;2022-11-06T07:05:17;5.32;;;4.00;;
74152;SDS011;62505;46.070;14.492;2022-11-06T07:07:44;4.97;;;3.50;;
74152;SDS011;62505;46.070;14.492;2022-11-06T07:10:11;4.55;;;3.25;;
74152;SDS011;62505;46.070;14.492;2022-11-06T07:12:38;4.43;;;3.10;;
74152;SDS011;62505;46.070;14.492;2022-11-06T07:15:06;5.15;;;3.42;;
74152;SDS011;62505;46.070;14.492;2022-11-06T07:17:33;5.05;;;3.53;;
74152;SDS011;62505;46.070;14.492;2022-11-06T07:20:02;7.72;;;3.85;;
74152;SDS011;62505;46.070;14.492;2022-11-06T07:22:30;5.72;;;3.72;;
74152;SDS011;62505;46.070;14.492;2022-11-06T07:24:57;4.28;;;3.08;;
74152;SDS011;62505;46.070;14.492;2022-11-06T07:27:24;6.15;;;3.78;;
74152;SDS011;62505;46.070;14.492;2022-11-06T07:29:53;4.07;;;3.22;;
74152;SDS011;62505;46.070;14.492;2022-11-06T07:32:20;4.18;;;3.42;;
74152;SDS011;62505;46.070;14.492;2022-11-06T07:34:48;4.65;;;3.30;;
74152;SDS011;62505;46.070;14.492;2022-11-06T07:37:17;6.70;;;3.08;;
74152;SDS011;62505;46.070;14.492;2022-11-06T07:39:44;5.03;;;3.72;;
74152;SDS011;62505;46.070;14.492;2022-11-06T07:42:11;4.13;;;3.38;;
74152;SDS011;62505;46.070;14.492;2022-11-06T07:44:43;3.88;;;2.83;;
74152;SDS011;62505;46.070;14.492;2022-11-06T07:47:12;4.82;;;3.60;;
74152;SDS011;62505;46.070;14.492;2022-11-06T07:49:39;7.22;;;3.58;;
74152;SDS011;62505;46.070;14.492;2022-11-06T07:52:06;4.38;;;3.42;;
74152;SDS011;62505;46.070;14.492;2022-11-06T07:54:34;4.03;;;3.15;;
74152;SDS011;62505;46.070;14.492;2022-11-06T07:57:01;6.43;;;3.17;;
74152;SDS011;62505;46.070;14.492;2022-11-06T07:59:28;5.88;;;3.70;;
74152;SDS011;62505;46.070;14.492;2022-11-06T08:01:55;10.10;;;4.55;;
74152;SDS011;62505;46.070;14.492;2022-11-06T08:04:22;4.85;;;3.30;;
74152;SDS011;62505;46.070;14.492;2022-11-06T08:06:49;4.80;;;3.42;;
74152;SDS011;62505;46.070;14.492;2022-11-06T08:09:16;5.82;;;3.70;;
74152;SDS011;62505;46.070;14.492;2022-11-06T08:11:44;6.63;;;3.70;;
74152;SDS011;62505;46.070;14.492;2022-11-06T08:14:13;5.18;;;3.35;;
74152;SDS011;62505;46.070;14.492;2022-11-06T08:16:40;7.25;;;4.20;;
74152;SDS011;62505;46.070;14.492;2022-11-06T08:19:07;7.22;;;3.70;;
74152;SDS011;62505;46.070;14.492;2022-11-06T08:21:34;7.78;;;4.03;;
74152;SDS011;62505;46.070;14.492;2022-11-06T08:24:01;4.93;;;3.40;;
74152;SDS011;62505;46.070;14.492;2022-11-06T08:26:28;5.10;;;3.58;;
74152;SDS011;62505;46.070;14.492;2022-11-06T08:28:57;7.15;;;3.90;;
74152;SDS011;62505;46.070;14.492;2022-11-06T08:31:24;6.53;;;3.60;;
74152;SDS011;62505;46.070;14.492;2022-11-06T08:33:51;6.13;;;3.85;;
74152;SDS011;62505;46.070;14.492;2022-11-06T08:36:18;9.65;;;4.70;;
74152;SDS011;62505;46.070;14.492;2022-11-06T08:38:45;5.95;;;4.20;;
74152;SDS011;62505;46.070;14.492;2022-11-06T08:41:13;11.82;;;4.13;;
74152;SDS011;62505;46.070;14.492;2022-11-06T08:43:40;6.68;;;3.97;;
74152;SDS011;62505;46.070;14.492;2022-11-06T08:46:08;9.57;;;4.35;;
74152;SDS011;62505;46.070;14.492;2022-11-06T08:48:36;8.30;;;3.65;;
74152;SDS011;62505;46.070;14.492;2022-11-06T08:51:03;5.15;;;3.55;;
74152;SDS011;62505;46.070;14.492;2022-11-06T08:53:30;5.95;;;3.85;;
74152;SDS011;62505;46.070;14.492;2022-11-06T08:55:57;9.90;;;4.40;;
74152;SDS011;62505;46.070;14.492;2022-11-06T08:58:24;6.50;;;4.05;;
74152;SDS011;62505;46.070;14.492;2022-11-06T09:00:51;7.50;;;3.90;;
74152;SDS011;62505;46.070;14.492;2022-11-06T09:03:20;6.15;;;3.40;;
74152;SDS011;62505;46.070;14.492;2022-11-06T09:05:46;6.45;;;3.85;;
74152;SDS011;62505;46.070;14.492;2022-11-06T09:08:13;6.15;;;3.78;;
74152;SDS011;62505;46.070;14.492;2022-11-06T09:10:41;7.38;;;3.90;;
74152;SDS011;62505;46.070;14.492;2022-11-06T09:13:09;5.10;;;3.58;;
74152;SDS011;62505;46.070;14.492;2022-11-06T09:15:36;5.35;;;3.78;;
74152;SDS011;62505;46.070;14.492;2022-11-06T09:18:04;5.45;;;3.78;;
74152;SDS011;62505;46.070;14.492;2022-11-06T09:20:32;8.00;;;3.95;;
74152;SDS011;62505;46.070;14.492;2022-11-06T09:22:59;8.30;;;4.22;;
74152;SDS011;62505;46.070;14.492;2022-11-06T09:25:27;9.20;;;3.90;;
74152;SDS011;62505;46.070;14.492;2022-11-06T09:27:54;10.05;;;3.97;;
74152;SDS011;62505;46.070;14.492;2022-11-06T09:30:22;6.15;;;3.45;;
74152;SDS011;62505;46.070;14.492;2022-11-06T09:32:50;4.38;;;3.35;;
74152;SDS011;62505;46.070;14.492;2022-11-06T09:35:19;4.82;;;3.55;;
74152;SDS011;62505;46.070;14.492;2022-11-06T09:37:48;8.10;;;4.07;;
74152;SDS011;62505;46.070;14.492;2022-11-06T09:40:19;5.22;;;3.63;;
74152;SDS011;62505;46.070;14.492;2022-11-06T09:42:55;5.90;;;3.67;;
74152;SDS011;62505;46.070;14.492;2022-11-06T09:45:29;4.65;;;3.42;;
74152;SDS011;62505;46.070;14.492;2022-11-06T09:48:06;6.70;;;3.88;;
74152;SDS011;62505;46.070;14.492;2022-11-06T09:50:44;5.25;;;3.92;;
74152;SDS011;62505;46.070;14.492;2022-11-06T09:53:17;4.90;;;3.40;;
74152;SDS011;62505;46.070;14.492;2022-11-06T09:55:49;5.15;;;3.70;;
74152;SDS011;62505;46.070;14.492;2022-11-06T09:58:18;6.05;;;3.35;;
74152;SDS011;62505;46.070;14.492;2022-11-06T10:00:49;5.47;;;3.30;;
74152;SDS011;62505;46.070;14.492;2022-11-06T10:03:18;6.75;;;3.78;;
74152;SDS011;62505;46.070;14.492;2022-11-06T10:05:50;6.28;;;3.83;;
74152;SDS011;62505;46.070;14.492;2022-11-06T10:08:20;10.27;;;3.65;;
74152;SDS011;62505;46.070;14.492;2022-11-06T10:10:53;4.93;;;3.30;;
74152;SDS011;62505;46.070;14.492;2022-11-06T10:13:40;5.65;;;3.65;;
74152;SDS011;62505;46.070;14.492;2022-11-06T10:16:19;7.43;;;3.92;;
74152;SDS011;62505;46.070;14.492;2022-11-06T10:18:55;9.35;;;3.92;;
74152;SDS011;62505;46.070;14.492;2022-11-06T10:21:32;5.68;;;3.90;;
74152;SDS011;62505;46.070;14.492;2022-11-06T10:24:10;8.25;;;3.65;;
74152;SDS011;62505;46.070;14.492;2022-11-06T10:26:47;6.63;;;3.58;;
74152;SDS011;62505;46.070;14.492;2022-11-06T10:29:27;7.15;;;3.67;;
74152;SDS011;62505;46.070;14.492;2022-11-06T10:32:10;5.13;;;3.50;;
74152;SDS011;62505;46.070;14.492;2022-11-06T10:34:56;4.20;;;3.42;;
74152;SDS011;62505;46.070;14.492;2022-11-06T10:37:28;5.07;;;3.10;;
74152;SDS011;62505;46.070;14.492;2022-11-06T10:40:00;5.15;;;3.42;;
74152;SDS011;62505;46.070;14.492;2022-11-06T10:42:30;6.50;;;3.75;;
74152;SDS011;62505;46.070;14.492;2022-11-06T10:45:02;5.90;;;3.13;;
74152;SDS011;62505;46.070;14.492;2022-11-06T10:47:31;5.38;;;3.60;;
74152;SDS011;62505;46.070;14.492;2022-11-06T10:50:02;4.97;;;3.42;;
74152;SDS011;62505;46.070;14.492;2022-11-06T10:52:44;3.92;;;2.92;;
74152;SDS011;62505;46.070;14.492;2022-11-06T10:55:31;4.05;;;2.85;;
74152;SDS011;62505;46.070;14.492;2022-11-06T10:58:06;4.05;;;2.90;;
74152;SDS011;62505;46.070;14.492;2022-11-06T11:00:37;4.25;;;3.13;;
74152;SDS011;62505;46.070;14.492;2022-11-06T11:03:04;4.80;;;3.58;;
74152;SDS011;62505;46.070;14.492;2022-11-06T11:05:41;3.65;;;2.78;;
74152;SDS011;62505;46.070;14.492;2022-11-06T11:11:01;5.00;;;3.45;;
74152;SDS011;62505;46.070;14.492;2022-11-06T11:13:29;4.43;;;3.28;;
74152;SDS011;62505;46.070;14.492;2022-11-06T11:15:56;4.30;;;3.00;;
74152;SDS011;62505;46.070;14.492;2022-11-06T11:18:25;4.78;;;3.55;;
74152;SDS011;62505;46.070;14.492;2022-11-06T11:24:03;6.18;;;3.10;;
74152;SDS011;62505;46.070;14.492;2022-11-06T11:26:34;5.25;;;2.83;;
74152;SDS011;62505;46.070;14.492;2022-11-06T11:29:10;3.55;;;2.70;;
74152;SDS011;62505;46.070;14.492;2022-11-06T11:31:41;4.43;;;2.95;;
74152;SDS011;62505;46.070;14.492;2022-11-06T11:34:14;4.88;;;3.13;;
74152;SDS011;62505;46.070;14.492;2022-11-06T11:36:45;4.30;;;3.00;;
74152;SDS011;62505;46.070;14.492;2022-11-06T11:39:17;4.05;;;3.10;;
74152;SDS011;62505;46.070;14.492;2022-11-06T11:41:48;3.80;;;3.00;;
74152;SDS011;62505;46.070;14.492;2022-11-06T11:44:15;3.95;;;3.03;;
74152;SDS011;62505;46.070;14.492;2022-11-06T11:46:44;4.05;;;3.03;;
74152;SDS011;62505;46.070;14.492;2022-11-06T11:49:26;3.90;;;2.90;;
74152;SDS011;62505;46.070;14.492;2022-11-06T11:51:54;7.13;;;2.63;;
74152;SDS011;62505;46.070;14.492;2022-11-06T11:54:23;5.32;;;3.17;;
74152;SDS011;62505;46.070;14.492;2022-11-06T11:56:54;4.47;;;3.00;;
74152;SDS011;62505;46.070;14.492;2022-11-06T11:59:23;4.97;;;2.80;;
74152;SDS011;62505;46.070;14.492;2022-11-06T12:01:54;3.10;;;2.80;;
74152;SDS011;62505;46.070;14.492;2022-11-06T12:04:25;4.80;;;3.45;;
74152;SDS011;62505;46.070;14.492;2022-11-06T12:06:55;5.25;;;3.00;;
74152;SDS011;62505;46.070;14.492;2022-11-06T12:09:25;3.65;;;2.75;;
74152;SDS011;62505;46.070;14.492;2022-11-06T12:11:55;4.15;;;2.90;;
74152;SDS011;62505;46.070;14.492;2022-11-06T12:14:28;4.47;;;2.78;;
74152;SDS011;62505;46.070;14.492;2022-11-06T12:17:02;3.95;;;2.83;;
74152;SDS011;62505;46.070;14.492;2022-11-06T12:19:35;4.45;;;3.17;;
74152;SDS011;62505;46.070;14.492;2022-11-06T12:22:06;4.35;;;3.10;;
74152;SDS011;62505;46.070;14.492;2022-11-06T12:24:39;3.85;;;2.78;;
74152;SDS011;62505;46.070;14.492;2022-11-06T12:27:14;3.95;;;2.80;;
74152;SDS011;62505;46.070;14.492;2022-11-06T12:29:46;5.70;;;2.90;;
74152;SDS011;62505;46.070;14.492;2022-11-06T12:32:18;3.75;;;2.85;;
74152;SDS011;62505;46.070;14.492;2022-11-06T12:34:52;4.50;;;2.90;;
74152;SDS011;62505;46.070;14.492;2022-11-06T12:37:27;3.92;;;2.90;;
74152;SDS011;62505;46.070;14.492;2022-11-06T12:40:04;4.72;;;2.95;;
74152;SDS011;62505;46.070;14.492;2022-11-06T12:42:44;3.42;;;3.10;;
74152;SDS011;62505;46.070;14.492;2022-11-06T12:45:21;4.93;;;2.88;;
74152;SDS011;62505;46.070;14.492;2022-11-06T12:47:56;4.78;;;3.25;;
74152;SDS011;62505;46.070;14.492;2022-11-06T12:50:31;4.50;;;2.67;;
74152;SDS011;62505;46.070;14.492;2022-11-06T12:53:10;6.25;;;2.90;;
74152;SDS011;62505;46.070;14.492;2022-11-06T12:55:45;7.28;;;3.10;;
74152;SDS011;62505;46.070;14.492;2022-11-06T13:01:13;3.33;;;2.63;;
74152;SDS011;62505;46.070;14.492;2022-11-06T13:04:02;3.47;;;2.33;;
74152;SDS011;62505;46.070;14.492;2022-11-06T13:07:05;5.93;;;3.10;;
74152;SDS011;62505;46.070;14.492;2022-11-06T13:10:02;4.10;;;3.10;;
74152;SDS011;62505;46.070;14.492;2022-11-06T13:12:40;3.47;;;2.90;;
74152;SDS011;62505;46.070;14.492;2022-11-06T13:15:17;4.00;;;2.55;;
74152;SDS011;62505;46.070;14.492;2022-11-06T13:17:51;4.70;;;3.15;;
74152;SDS011;62505;46.070;14.492;2022-11-06T13:20:24;3.60;;;2.83;;
74152;SDS011;62505;46.070;14.492;2022-11-06T13:22:57;3.55;;;2.67;;
74152;SDS011;62505;46.070;14.492;2022-11-06T13:25:31;3.00;;;2.58;;
74152;SDS011;62505;46.070;14.492;2022-11-06T13:28:05;3.78;;;2.47;;
74152;SDS011;62505;46.070;14.492;2022-11-06T13:30:48;4.25;;;2.95;;
74152;SDS011;62505;46.070;14.492;2022-11-06T13:33:19;3.95;;;2.90;;
74152;SDS011;62505;46.070;14.492;2022-11-06T13:35:49;4.13;;;3.00;;
74152;SDS011;62505;46.070;14.492;2022-11-06T13:38:19;4.97;;;3.15;;
74152;SDS011;62505;46.070;14.492;2022-11-06T13:40:50;4.55;;;3.03;;
74152;SDS011;62505;46.070;14.492;2022-11-06T13:43:20;4.15;;;3.08;;
74152;SDS011;62505;46.070;14.492;2022-11-06T13:45:55;4.25;;;2.90;;
74152;SDS011;62505;46.070;14.492;2022-11-06T13:48:33;4.57;;;2.90;;
74152;SDS011;62505;46.070;14.492;2022-11-06T13:51:11;4.13;;;3.00;;
74152;SDS011;62505;46.070;14.492;2022-11-06T13:53:44;4.35;;;2.80;;
74152;SDS011;62505;46.070;14.492;2022-11-06T13:56:21;4.25;;;3.10;;
74152;SDS011;62505;46.070;14.492;2022-11-06T14:02:00;4.20;;;3.20;;
74152;SDS011;62505;46.070;14.492;2022-11-06T14:04:52;6.20;;;3.55;;
74152;SDS011;62505;46.070;14.492;2022-11-06T14:07:40;4.63;;;3.28;;
74152;SDS011;62505;46.070;14.492;2022-11-06T14:10:15;7.32;;;3.72;;
74152;SDS011;62505;46.070;14.492;2022-11-06T14:12:45;6.35;;;3.55;;
74152;SDS011;62505;46.070;14.492;2022-11-06T14:15:13;5.75;;;3.70;;
74152;SDS011;62505;46.070;14.492;2022-11-06T14:17:54;5.55;;;3.97;;
74152;SDS011;62505;46.070;14.492;2022-11-06T14:20:26;5.78;;;3.63;;
74152;SDS011;62505;46.070;14.492;2022-11-06T14:25:57;5.47;;;3.72;;
74152;SDS011;62505;46.070;14.492;2022-11-06T14:28:29;5.53;;;3.80;;
74152;SDS011;62505;46.070;14.492;2022-11-06T14:30:57;8.13;;;3.67;;
74152;SDS011;62505;46.070;14.492;2022-11-06T14:36:26;7.93;;;4.07;;
74152;SDS011;62505;46.070;14.492;2022-11-06T14:38:55;5.68;;;3.85;;
74152;SDS011;62505;46.070;14.492;2022-11-06T14:47:07;9.13;;;3.97;;
74152;SDS011;62505;46.070;14.492;2022-11-06T14:49:54;7.47;;;3.92;;
74152;SDS011;62505;46.070;14.492;2022-11-06T14:52:23;5.53;;;4.00;;
74152;SDS011;62505;46.070;14.492;2022-11-06T14:54:52;6.03;;;4.03;;
74152;SDS011;62505;46.070;14.492;2022-11-06T14:57:33;5.75;;;3.72;;
74152;SDS011;62505;46.070;14.492;2022-11-06T15:00:05;6.97;;;3.53;;
74152;SDS011;62505;46.070;14.492;2022-11-06T15:02:33;6.25;;;3.97;;
74152;SDS011;62505;46.070;14.492;2022-11-06T15:05:04;6.93;;;4.20;;
74152;SDS011;62505;46.070;14.492;2022-11-06T15:07:50;5.68;;;3.80;;
74152;SDS011;62505;46.070;14.492;2022-11-06T15:13:27;6.47;;;4.25;;
74152;SDS011;62505;46.070;14.492;2022-11-06T15:16:01;5.90;;;4.25;;
74152;SDS011;62505;46.070;14.492;2022-11-06T15:18:35;6.15;;;3.78;;
74152;SDS011;62505;46.070;14.492;2022-11-06T15:21:08;7.80;;;4.15;;
74152;SDS011;62505;46.070;14.492;2022-11-06T15:23:38;6.95;;;4.07;;
74152;SDS011;62505;46.070;14.492;2022-11-06T15:26:14;6.00;;;4.20;;